Latest Coastal Weather Observations for Cape Leeuwin

IDW60701

Issued at 4:41 pm WST Thursday 5 May 2016 (issued every 10 minutes, with the page automatically refreshed every 10 minutes)

About coastal observations | Map of coastal stations | Coastal observations for WA | Marine services | Other Formats
Station Details ID: 009518 Name: CAPE LEEUWIN Lat: -34.37 Lon: 115.14 Height: 13.0 m
Data from the previous 72 hours. | See also: Recent months at Cape Leeuwin
Date/Time
WST
Temp

°C
Wind Pressure Rain
since 9am
mm
Weather Cloud Vis
km
Sea
Height
m
Swell
Dir
 
Speed
knots
Gust
knots
hPa Trend Height
m
Period
s
Dir
05/04:30pm 16.0 SSW 9 13 1015.0 - 0.0 - - - - - - -
05/04:00pm 16.4 SSW 9 12 1015.0 - 0.0 - - - - - - -
05/03:30pm 16.9 SSW 11 14 1015.0 - 0.0 - - - - - - -
05/03:00pm 18.2 SW 8 11 1014.9 - 0.0 - - - - - - -
05/02:30pm 17.1 SW 8 11 1015.0 - 0.0 - - - - - - -
05/02:00pm 17.4 S 8 11 1015.1 - 0.0 - - - - - - -
05/01:30pm 17.5 SW 9 13 1015.3 - 0.0 - - - - - - -
05/01:00pm 18.5 WSW 9 12 1015.4 - 0.0 - - - - - - -
05/12:30pm 18.1 SSW 8 13 1015.4 - 0.0 - - - - - - -
05/12:00pm 17.6 SW 9 12 1015.8 - 0.0 - - - - - - -
05/11:30am 17.4 SSW 7 11 1016.2 - 0.0 - - - - - - -
05/11:00am 16.9 SW 8 12 1016.6 - 0.0 - - - - - - -
05/10:30am 17.5 SSW 10 13 1016.6 - 0.0 - - - - - - -
05/10:00am 16.7 SSW 10 13 1016.6 - 0.0 - - - - - - -
05/09:30am 17.5 SSW 10 13 1016.5 - 0.0 - - - - - - -
05/09:00am 16.4 SSW 12 17 1016.3 - 1.6 - - - - - - -
05/08:30am 16.0 SSW 12 15 1016.1 - 1.6 - - - - - - -
05/08:00am 15.8 SSW 11 15 1015.9 - 1.6 - - - - - - -
05/07:30am 15.6 SW 12 17 1015.5 - 1.6 - - - - - - -
05/07:00am 15.8 SW 15 21 1015.3 - 1.6 - - - - - - -
05/06:30am 16.5 SW 16 20 1015.2 - 1.6 - - - - - - -
05/06:00am 16.4 SW 14 19 1015.0 - 1.6 - - - - - - -
05/05:30am 16.4 SW 16 19 1014.8 - 1.6 - - - - - - -
05/05:00am 16.5 SW 15 21 1014.6 - 1.6 - - - - - - -
05/04:30am 16.4 SW 15 19 1014.3 - 1.6 - - - - - - -
05/04:00am 16.5 SW 18 22 1014.4 - 1.6 - - - - - - -
05/03:30am 16.7 SSW 18 23 1014.3 - 1.6 - - - - - - -
05/03:00am 16.5 SW 15 21 1014.2 - 1.6 Recent precip. - - - - - -
05/02:30am 16.7 SW 17 21 1014.2 - 1.6 - - - - - - -
05/02:00am 16.5 SW 19 24 1014.2 - 1.2 - - - - - - -
05/01:46am 16.2 WSW 25 35 1014.1 - 1.2 - - - - - - -
05/01:37am 17.8 WSW 22 33 1013.7 - 0.2 - - - - - - -
05/01:30am 17.8 W 19 25 1013.6 - 0.2 - - - - - - -
05/01:00am 18.3 W 19 23 1013.6 - 0.2 - - - - - - -
05/12:30am 17.7 W 17 22 1013.7 - 0.2 - - - - - - -
05/12:00am 18.3 W 19 22 1013.8 - 0.2 - - - - - - -
 
Date/Time
WST
Temp

°C
Wind Pressure Rain
since 9am
mm
Weather Cloud Vis
km
Sea
Height
m
Swell
Dir
 
Speed
knots
Gust
knots
hPa Trend Height
m
Period
s
Dir
04/11:30pm 18.3 WSW 20 23 1014.1 - 0.2 - - - - - - -
04/11:00pm 18.3 W 19 23 1014.2 - 0.2 - - - - - - -
04/10:30pm 18.1 W 18 21 1014.4 - 0.2 - - - - - - -
04/10:00pm 18.2 W 19 24 1014.3 - 0.2 - - - - - - -
04/09:30pm 18.2 WSW 23 27 1014.3 - 0.2 - - - - - - -
04/09:00pm 18.3 WSW 27 33 1014.1 - 0.2 - - - - - - -
04/08:30pm 18.1 WSW 25 30 1014.1 - 0.2 - - - - - - -
04/08:00pm 18.6 WSW 25 29 1014.0 - 0.2 - - - - - - -
04/07:30pm 18.4 WSW 25 29 1013.9 - 0.2 - - - - - - -
04/07:00pm 18.7 W 23 27 1013.6 - 0.2 - - - - - - -
04/06:30pm 18.4 W 22 26 1013.4 - 0.2 - - - - - - -
04/06:00pm 18.6 W 20 22 1013.1 - 0.2 - - - - - - -
04/05:30pm 18.6 W 23 27 1013.1 - 0.2 - - - - - - -
04/05:00pm 18.8 W 21 28 1013.1 - 0.2 - - - - - - -
04/04:30pm 18.6 W 20 23 1013.1 - 0.0 - - - - - - -
04/04:00pm 18.7 W 24 28 1013.0 - 0.0 - - - - - - -
04/03:30pm 19.1 W 23 26 1013.0 - 0.0 - - - - - - -
04/03:00pm 19.0 W 23 26 1013.1 - 0.0 - - - - - - -
04/02:30pm 19.2 W 21 25 1013.0 - 0.0 - - - - - - -
04/02:00pm 19.4 WNW 21 25 1013.1 - 0.0 - - - - - - -
04/01:30pm 19.4 W 23 27 1013.2 - 0.0 - - - - - - -
04/01:00pm 19.5 W 21 24 1013.5 - 0.0 - - - - - - -
04/12:30pm 19.9 W 20 23 1013.9 - 0.0 - - - - - - -
04/12:00pm 19.1 W 22 24 1014.4 - 0.0 - - - - - - -
04/11:30am 19.3 W 20 23 1014.7 - 0.0 - - - - - - -
04/11:00am 18.9 W 18 20 1015.2 - 0.0 - - - - - - -
04/10:30am 18.6 W 22 25 1015.5 - 0.0 - - - - - - -
04/10:00am 18.4 W 23 28 1015.6 - 0.0 - - - - - - -
04/09:30am 18.0 WNW 17 22 1015.8 - 0.0 - - - - - - -
04/09:00am 17.6 WNW 15 18 1015.9 - 1.6 - - - - - - -
04/08:30am 16.9 W 20 25 1016.2 - 1.6 - - - - - - -
04/08:00am 18.1 W 20 25 1015.9 - 1.6 - - - - - - -
04/07:30am 17.5 W 17 19 1015.8 - 1.6 - - - - - - -
04/07:00am 17.0 W 16 18 1015.9 - 1.0 - - - - - - -
04/06:30am 17.4 NW 15 18 1015.9 - 0.4 - - - - - - -
04/06:00am 18.2 WNW 17 21 1015.9 - 0.4 - - - - - - -
04/05:30am 18.2 WNW 19 23 1015.9 - 0.4 - - - - - - -
04/05:00am 18.2 W 17 21 1015.9 - 0.4 - - - - - - -
04/04:30am 18.1 WNW 15 19 1016.1 - 0.4 - - - - - - -
04/04:00am 18.1 WNW 17 20 1016.3 - 0.4 - - - - - - -
04/03:30am 18.2 W 18 23 1016.4 - 0.4 - - - - - - -
04/03:00am 17.8 W 14 18 1016.6 - 0.4 - - - - - - -
04/02:30am 17.7 W 15 18 1016.8 - 0.4 - - - - - - -
04/02:00am 18.0 W 15 19 1017.0 - 0.4 - - - - - - -
04/01:30am 18.2 W 13 16 1017.2 - 0.4 - - - - - - -
04/01:00am 18.0 W 16 19 1017.5 - 0.4 - - - - - - -
04/12:30am 17.9 W 16 21 1017.8 - 0.4 - - - - - - -
04/12:00am 18.1 W 15 18 1017.9 - 0.4 - - - - - - -
 
Date/Time
WST
Temp

°C
Wind Pressure Rain
since 9am
mm
Weather Cloud Vis
km
Sea
Height
m
Swell
Dir
 
Speed
knots
Gust
knots
hPa Trend Height
m
Period
s
Dir
03/11:30pm 17.8 W 16 18 1018.1 - 0.4 - - - - - - -
03/11:00pm 17.7 W 14 17 1018.5 - 0.4 - - - - - - -
03/10:30pm 17.7 W 16 18 1018.7 - 0.4 - - - - - - -
03/10:00pm 17.6 WSW 15 17 1019.0 - 0.4 - - - - - - -
03/09:30pm 17.6 W 14 16 1019.1 - 0.4 - - - - - - -
03/09:00pm 17.7 W 13 16 1019.3 - 0.4 - - - - - - -
03/08:30pm 17.4 W 13 15 1019.3 - 0.4 - - - - - - -
03/08:00pm 16.8 WSW 12 14 1019.5 - 0.4 - - - - - - -
03/07:30pm 17.1 WSW 14 17 1019.6 - 0.4 - - - - - - -
03/07:00pm 17.0 WSW 7 9 1019.6 - 0.2 - - - - - - -
03/06:30pm 17.3 WSW 13 16 1019.4 - 0.2 - - - - - - -
03/06:00pm 17.5 W 13 16 1019.3 - 0.2 - - - - - - -
03/05:30pm 17.6 W 13 16 1019.2 - 0.2 - - - - - - -
03/05:00pm 18.1 WNW 8 9 1019.3 - 0.2 - - - - - - -
03/04:30pm 18.3 WSW 9 11 1019.4 - 0.2 - - - - - - -
03/04:00pm 19.1 W 10 13 1019.4 - 0.2 - - - - - - -
03/03:30pm 19.2 W 10 12 1019.4 - 0.2 - - - - - - -
03/03:00pm 19.4 W 9 11 1019.6 - 0.2 - - - - - - -
03/02:30pm 18.9 WSW 11 14 1019.7 - 0.2 - - - - - - -
03/02:00pm 18.8 W 12 14 1019.8 - 0.2 - - - - - - -
03/01:30pm 18.4 WSW 8 10 1020.1 - 0.2 - - - - - - -
03/01:00pm 18.5 W 4 11 1020.3 - 0.0 - - - - - - -
03/12:30pm 18.5 W 10 15 1020.7 - 0.0 - - - - - - -
03/12:00pm 19.1 WSW 9 11 1021.0 - 0.0 - - - - - - -
03/11:30am 18.9 WSW 10 11 1021.4 - 0.0 - - - - - - -
03/11:00am 19.7 WSW 9 11 1021.5 - 0.0 - - - - - - -
03/10:30am 19.1 WSW 10 12 1021.5 - 0.0 - - - - - - -
03/10:00am 18.7 SW 9 12 1021.5 - 0.0 - - - - - - -
03/09:30am 18.6 SW 9 12 1021.6 - 0.0 - - - - - - -
03/09:00am 18.3 SW 9 12 1021.6 - 0.4 - - - - - - -
03/08:30am 16.9 SSW 10 12 1021.5 - 0.4 - - - - - - -
03/08:00am 16.6 SSW 12 17 1021.5 - 0.4 - - - - - - -
03/07:30am 16.6 SW 10 16 1021.2 - 0.4 - - - - - - -
03/07:00am 16.0 S 4 7 1020.8 - 0.4 - - - - - - -
03/06:30am 16.0 SSW 6 8 1020.8 - 0.4 - - - - - - -
03/06:00am 16.6 SSW 13 18 1020.7 - 0.4 - - - - - - -
03/05:30am 16.8 SW 13 16 1020.6 - 0.4 - - - - - - -
03/05:00am 16.7 SW 13 19 1020.4 - 0.4 - - - - - - -
03/04:30am 17.2 SW 16 20 1020.3 - 0.4 - - - - - - -
03/04:00am 17.2 SW 14 20 1020.1 - 0.4 - - - - - - -
03/03:30am 17.1 SW 17 23 1020.4 - 0.4 - - - - - - -
03/03:00am 17.3 WSW 18 21 1020.4 - 0.4 - - - - - - -
03/02:30am 17.0 SW 20 25 1020.7 - 0.4 - - - - - - -
03/02:00am 17.2 SW 16 21 1020.7 - 0.4 - - - - - - -
03/01:30am 16.7 SW 16 23 1020.9 - 0.4 - - - - - - -
03/01:00am 18.0 WSW 16 18 1020.9 - 0.2 - - - - - - -
03/12:30am 17.6 WSW 14 16 1021.0 - 0.2 - - - - - - -
03/12:00am 17.3 WSW 17 21 1021.2 - 0.2 - - - - - - -
 
Date/Time
WST
Temp

°C
Wind Pressure Rain
since 9am
mm
Weather Cloud Vis
km
Sea
Height
m
Swell
Dir
 
Speed
knots
Gust
knots
hPa Trend Height
m
Period
s
Dir
02/11:30pm 18.0 WSW 17 19 1021.1 - 0.2 - - - - - - -
02/11:00pm 18.0 SW 16 19 1021.2 - 0.2 - - - - - - -
02/10:30pm 17.9 SW 14 19 1021.4 - 0.2 - - - - - - -
02/10:00pm 17.9 SW 15 18 1021.3 - 0.2 - - - - - - -
02/09:30pm 17.7 WSW 14 18 1021.2 - 0.2 - - - - - - -
02/09:00pm 17.5 WSW 14 17 1021.0 - 0.2 - - - - - - -
02/08:30pm 17.7 SW 14 18 1020.9 - 0.2 - - - - - - -
02/08:00pm 18.0 SW 14 16 1020.8 - 0.2 - - - - - - -
02/07:30pm 17.9 WSW 15 17 1020.9 - 0.2 - - - - - - -
02/07:00pm 17.7 WSW 14 17 1020.9 - 0.2 - - - - - - -
02/06:30pm 17.5 WSW 12 15 1020.5 - 0.2 - - - - - - -
02/06:00pm 17.6 WSW 13 16 1020.2 - 0.2 - - - - - - -
02/05:30pm 17.7 SW 14 18 1020.2 - 0.2 - - - - - - -
02/05:00pm 18.4 WSW 14 17 1020.1 - 0.2 - - - - - - -

Other Formats:

Comma delimited format used in spreadsheet applications
http://www.bom.gov.au/fwo/IDW60701/IDW60701.94601.axf

JavaScript Object Notation format (JSON) in row-major order
http://www.bom.gov.au/fwo/IDW60701/IDW60701.94601.json